Time;durP1;ratioP1;P1;durP2;ratioP2;P2;SDS_P1;SDS_P2;PMS_P1;PMS_P2;Temp;Humidity;BMP_temperature;BMP_pressure;BME280_temperature;BME280_humidity;BME280_pressure;Samples;Min_cycle;Max_cycle;Signal;HPM_P1;HPM_P2
2021/08/31 00:02:00;;;;;;;8.00;4.50;;;;;;;21.14;59.34;102571.09;5099599;27;20026;-79
2021/08/31 00:04:26;;;;;;;7.35;3.65;;;;;;;21.14;58.96;102571.09;5133749;27;20107;-79
2021/08/31 00:06:51;;;;;;;6.70;3.78;;;;;;;21.14;58.60;102571.09;5116715;27;20118;-80
2021/08/31 00:09:17;;;;;;;6.05;3.70;;;;;;;21.14;58.96;102576.34;5099509;27;20481;-79
2021/08/31 00:11:44;;;;;;;6.80;3.83;;;;;;;21.14;58.98;102572.81;5116315;27;20047;-78
2021/08/31 00:14:11;;;;;;;6.45;3.75;;;;;;;21.13;58.84;102574.56;5115946;27;20034;-79
2021/08/31 00:16:39;;;;;;;6.43;3.90;;;;;;;21.13;58.87;102574.56;5133541;27;20216;-80
2021/08/31 00:19:05;;;;;;;4.65;3.80;;;;;;;21.13;58.80;102574.56;5116636;28;20091;-82
2021/08/31 00:21:30;;;;;;;6.13;3.90;;;;;;;21.13;58.78;102574.56;5134875;27;20025;-79
2021/08/31 00:23:56;;;;;;;5.35;3.53;;;;;;;21.13;58.91;102577.19;5116347;27;20400;-79
2021/08/31 00:26:21;;;;;;;5.35;3.80;;;;;;;21.12;58.83;102570.22;5133309;28;20496;-80
2021/08/31 00:28:46;;;;;;;5.32;3.38;;;;;;;21.13;58.88;102576.31;5099139;28;20031;-80
2021/08/31 00:31:12;;;;;;;4.40;3.30;;;;;;;21.13;58.90;102574.56;5099172;28;20026;-79
2021/08/31 00:33:37;;;;;;;6.70;4.28;;;;;;;21.12;58.90;102583.31;5134604;27;20059;-80
2021/08/31 00:36:04;;;;;;;7.38;4.00;;;;;;;21.13;58.73;102584.19;5133318;28;20465;-79
2021/08/31 00:38:30;;;;;;;5.03;3.47;;;;;;;21.12;58.86;102583.31;5134380;27;20035;-79
2021/08/31 00:40:56;;;;;;;5.57;3.47;;;;;;;21.13;58.83;102589.41;5134512;27;20042;-79
2021/08/31 00:43:21;;;;;;;5.72;3.65;;;;;;;21.13;58.74;102589.41;5116328;28;20126;-80
2021/08/31 00:45:48;;;;;;;6.95;4.05;;;;;;;21.12;58.55;102588.56;5099183;28;20122;-79
2021/08/31 00:48:14;;;;;;;4.90;3.25;;;;;;;21.12;59.04;102585.94;5116263;28;20031;-78
2021/08/31 00:50:40;;;;;;;6.10;4.00;;;;;;;21.12;58.78;102583.31;5133133;27;20671;-79
2021/08/31 00:53:05;;;;;;;6.93;3.97;;;;;;;21.12;58.85;102585.03;5115928;28;20504;-79
2021/08/31 00:55:31;;;;;;;6.85;3.58;;;;;;;21.13;58.98;102584.19;5133266;28;20485;-78
2021/08/31 00:57:56;;;;;;;5.45;3.45;;;;;;;21.11;58.72;102581.56;5133181;27;20019;-77
2021/08/31 01:00:22;;;;;;;5.63;3.50;;;;;;;21.12;58.79;102587.66;5116054;28;20027;-82
2021/08/31 01:02:47;;;;;;;5.65;4.00;;;;;;;21.12;58.75;102579.81;5116177;28;20420;-79
2021/08/31 01:05:13;;;;;;;6.80;3.95;;;;;;;21.12;58.75;102587.66;5116103;28;20109;-79
2021/08/31 01:07:40;;;;;;;4.70;3.53;;;;;;;21.11;58.84;102586.78;5133103;28;20487;-80
2021/08/31 01:10:06;;;;;;;5.97;3.33;;;;;;;21.11;58.71;102588.53;5115661;28;20118;-79
2021/08/31 01:12:31;;;;;;;6.88;4.22;;;;;;;21.10;58.86;102590.28;5099042;28;20127;-80
2021/08/31 01:14:57;;;;;;;6.95;3.53;;;;;;;21.11;58.93;102593.78;5115804;28;20031;-80
2021/08/31 01:17:24;;;;;;;5.97;3.55;;;;;;;21.10;58.64;102595.53;5133115;27;20445;-80
2021/08/31 01:19:49;;;;;;;6.25;3.55;;;;;;;21.10;58.68;102598.16;5133065;27;20033;-81
2021/08/31 01:22:15;;;;;;;5.45;3.70;;;;;;;21.10;58.64;102595.53;5115776;27;20102;-80
2021/08/31 01:24:42;;;;;;;5.18;3.58;;;;;;;21.10;58.71;102592.00;5101241;27;20023;-80
2021/08/31 01:27:08;;;;;;;6.00;3.55;;;;;;;21.09;58.64;102596.38;5119695;27;20027;-80
2021/08/31 01:29:34;;;;;;;6.07;3.50;;;;;;;21.09;58.93;102598.13;5119523;27;20095;-80
2021/08/31 01:32:00;;;;;;;5.45;3.63;;;;;;;21.08;58.80;102597.25;5136439;27;20027;-80
2021/08/31 01:34:26;;;;;;;7.47;3.83;;;;;;;21.09;58.59;102604.22;5137771;27;20419;-81
2021/08/31 01:36:52;;;;;;;4.93;3.60;;;;;;;21.09;58.73;102606.84;5119239;27;20119;-80
2021/08/31 01:39:17;;;;;;;5.53;3.50;;;;;;;21.09;58.81;102609.47;5119387;27;20027;-80
2021/08/31 01:41:43;;;;;;;6.15;3.55;;;;;;;21.10;58.69;102605.09;5119302;27;20023;-79
2021/08/31 01:44:08;;;;;;;3.80;3.10;;;;;;;21.09;58.59;102605.97;5136352;27;20027;-80
2021/08/31 01:46:34;;;;;;;6.20;3.47;;;;;;;21.10;58.66;102612.94;5137720;27;20430;-80
2021/08/31 01:48:59;;;;;;;5.35;3.53;;;;;;;21.09;58.69;102611.22;5136360;27;20024;-78
2021/08/31 01:51:25;;;;;;;5.50;3.28;;;;;;;21.09;58.55;102611.22;5101966;27;20023;-79
2021/08/31 01:53:50;;;;;;;6.68;3.58;;;;;;;21.09;58.57;102606.84;5102241;27;20064;-78
2021/08/31 01:56:16;;;;;;;4.80;3.38;;;;;;;21.09;58.79;102608.59;5119259;27;20108;-80
2021/08/31 01:58:41;;;;;;;5.72;3.55;;;;;;;21.09;58.80;102608.59;5136097;27;20099;-81
2021/08/31 02:01:07;;;;;;;5.28;3.42;;;;;;;21.08;58.60;102610.34;5102009;27;20037;-78
2021/08/31 02:03:32;;;;;;;3.72;3.03;;;;;;;21.08;58.67;102607.72;5136223;27;20029;-79
2021/08/31 02:06:00;;;;;;;5.65;3.55;;;;;;;21.08;58.79;102610.34;5118804;27;20024;-79
2021/08/31 02:08:25;;;;;;;5.07;3.00;;;;;;;21.07;58.72;102605.97;5137172;27;20076;-79
2021/08/31 02:10:51;;;;;;;5.80;3.35;;;;;;;21.08;58.65;102606.88;5118547;27;20096;-81
2021/08/31 02:13:17;;;;;;;6.10;3.30;;;;;;;21.07;58.66;102605.97;5118641;27;20031;-80
2021/08/31 02:15:42;;;;;;;5.18;3.47;;;;;;;21.07;58.62;102607.72;5118645;27;20087;-80
2021/08/31 02:18:10;;;;;;;5.05;3.00;;;;;;;21.07;58.53;102610.34;5136073;27;20035;-79
2021/08/31 02:20:36;;;;;;;5.75;3.30;;;;;;;21.07;58.58;102615.56;5136854;27;20031;-81
2021/08/31 02:23:01;;;;;;;5.03;3.00;;;;;;;21.07;58.70;102607.72;5101570;27;20030;-79
2021/08/31 02:25:27;;;;;;;5.18;3.28;;;;;;;21.06;58.51;102608.59;5118639;27;20055;-81
2021/08/31 02:27:52;;;;;;;5.65;3.35;;;;;;;21.05;58.55;102612.06;5118352;27;20027;-80
2021/08/31 02:30:18;;;;;;;5.60;3.13;;;;;;;21.06;58.55;102611.22;5118553;27;20024;-80
2021/08/31 02:32:48;;;;;;;4.88;3.30;;;;;;;21.05;58.70;102606.84;5135760;27;20027;-78
2021/08/31 02:35:13;;;;;;;4.75;3.10;;;;;;;21.06;58.52;102614.69;5101075;27;20039;-80
2021/08/31 02:37:39;;;;;;;6.25;3.17;;;;;;;21.04;58.66;102605.97;5135272;27;20126;-78
2021/08/31 02:40:05;;;;;;;5.38;3.28;;;;;;;21.05;58.54;102609.44;5135326;27;20030;-81
2021/08/31 02:42:31;;;;;;;5.45;3.70;;;;;;;21.04;58.52;102605.97;5118016;27;20468;-80
2021/08/31 02:44:57;;;;;;;6.00;3.38;;;;;;;21.04;58.55;102611.19;5135243;27;20081;-81
2021/08/31 02:47:22;;;;;;;5.35;3.35;;;;;;;21.04;58.35;102605.97;5135041;27;20465;-81
2021/08/31 02:49:47;;;;;;;4.72;3.20;;;;;;;21.05;58.53;102607.69;5101083;27;20027;-79
2021/08/31 02:52:13;;;;;;;5.65;2.97;;;;;;;21.06;58.55;102608.59;5117858;27;20118;-80
2021/08/31 02:54:39;;;;;;;6.03;3.08;;;;;;;21.06;58.28;102613.84;5134961;27;20019;-80
2021/08/31 02:57:04;;;;;;;5.90;3.20;;;;;;;21.05;58.51;102615.56;5134947;27;20037;-78
2021/08/31 02:59:30;;;;;;;4.47;2.90;;;;;;;21.05;58.74;102609.44;5134882;27;20491;-79
2021/08/31 03:02:05;;;;;;;4.82;3.15;;;;;;;21.04;58.50;102608.59;5134947;27;20033;-78
2021/08/31 03:04:35;;;;;;;4.50;2.65;;;;;;;21.04;58.51;102610.34;5119210;27;20495;-78
2021/08/31 03:07:03;;;;;;;7.22;3.28;;;;;;;21.04;58.44;102605.97;5135238;27;20072;-79
2021/08/31 03:09:29;;;;;;;4.13;2.97;;;;;;;21.04;58.38;102608.59;5134742;27;20030;-79
2021/08/31 03:11:54;;;;;;;4.70;3.15;;;;;;;21.04;58.53;102611.19;5117383;27;20053;-79
2021/08/31 03:14:21;;;;;;;4.13;3.00;;;;;;;21.03;58.60;102608.56;5100538;27;20388;-78
2021/08/31 03:16:47;;;;;;;4.30;2.95;;;;;;;21.04;58.22;102615.56;5134563;27;20042;-78
2021/08/31 03:19:16;;;;;;;4.63;3.30;;;;;;;21.02;58.50;102610.31;5117308;27;20024;-80
2021/08/31 03:21:41;;;;;;;4.45;3.10;;;;;;;21.03;58.52;102608.56;5134263;27;20023;-80
2021/08/31 03:24:07;;;;;;;4.22;2.97;;;;;;;21.03;58.49;102611.19;5134223;27;20492;-79
2021/08/31 03:26:32;;;;;;;5.25;3.22;;;;;;;21.03;58.07;102609.44;5100212;27;20031;-81
2021/08/31 03:28:58;;;;;;;5.53;3.13;;;;;;;21.03;58.33;102613.81;5135499;27;20027;-80
2021/08/31 03:31:23;;;;;;;4.53;3.00;;;;;;;21.02;58.37;102610.31;5116980;27;20028;-80
2021/08/31 03:33:49;;;;;;;4.68;3.10;;;;;;;21.01;58.41;102610.31;5135438;27;20118;-78
2021/08/31 03:36:14;;;;;;;4.47;2.95;;;;;;;21.03;58.34;102608.56;5117194;27;20488;-80
2021/08/31 03:38:40;;;;;;;4.90;3.08;;;;;;;21.02;58.31;102619.91;5117039;27;20027;-81
2021/08/31 03:41:05;;;;;;;5.07;2.78;;;;;;;21.02;58.20;102618.16;5117054;27;20422;-79
2021/08/31 03:43:31;;;;;;;5.30;3.35;;;;;;;21.02;58.40;102612.94;5134121;27;20023;-80
2021/08/31 03:45:56;;;;;;;3.83;2.60;;;;;;;21.03;58.42;102613.81;5116874;27;20027;-80
2021/08/31 03:48:22;;;;;;;4.80;3.00;;;;;;;21.03;58.42;102624.28;5116081;27;20023;-80
2021/08/31 03:50:47;;;;;;;5.15;3.08;;;;;;;21.01;58.34;102621.63;5116921;27;20027;-80
2021/08/31 03:53:12;;;;;;;5.35;3.10;;;;;;;21.02;58.31;102623.41;5116780;27;20043;-81
2021/08/31 03:55:38;;;;;;;7.88;3.13;;;;;;;21.02;58.17;102615.56;5116616;27;20050;-79
2021/08/31 03:58:07;;;;;;;4.18;2.88;;;;;;;21.01;58.17;102616.41;5116728;27;20100;-80
2021/08/31 04:00:35;;;;;;;5.97;3.00;;;;;;;21.01;58.33;102616.41;5133839;27;20465;-79
2021/08/31 04:03:02;;;;;;;5.18;2.95;;;;;;;21.02;58.16;102619.91;5116464;27;20381;-80
2021/08/31 04:05:29;;;;;;;4.65;2.88;;;;;;;21.00;58.27;102617.28;5116703;27;20037;-80
2021/08/31 04:07:54;;;;;;;5.45;3.15;;;;;;;20.99;58.25;102610.31;5133590;27;20057;-79
2021/08/31 04:10:20;;;;;;;5.07;2.75;;;;;;;20.99;58.11;102618.16;5133396;27;20501;-80
2021/08/31 04:12:45;;;;;;;4.38;3.08;;;;;;;21.00;58.09;102619.91;5116440;27;20082;-79
2021/08/31 04:15:11;;;;;;;5.22;3.00;;;;;;;21.00;58.34;102622.53;5133352;27;20481;-78
2021/08/31 04:17:36;;;;;;;5.20;2.95;;;;;;;21.01;58.16;102626.00;5133533;27;20026;-79
2021/08/31 04:20:03;;;;;;;3.75;3.00;;;;;;;21.00;57.97;102627.75;5116345;27;20040;-78
2021/08/31 04:22:28;;;;;;;5.78;3.10;;;;;;;21.00;58.03;102632.13;5116450;27;20023;-78
2021/08/31 04:24:53;;;;;;;6.47;2.88;;;;;;;21.00;58.03;102621.66;5116237;28;20120;-78
2021/08/31 04:27:19;;;;;;;5.28;2.85;;;;;;;21.00;58.16;102635.59;5116379;28;20035;-80
2021/08/31 04:29:44;;;;;;;4.88;3.00;;;;;;;21.00;58.15;102632.13;5134585;27;20030;-79
2021/08/31 04:32:09;;;;;;;4.47;2.72;;;;;;;21.00;58.10;102633.00;5134591;27;20035;-77
2021/08/31 04:34:35;;;;;;;5.45;3.00;;;;;;;21.00;58.20;102635.59;5133393;28;20502;-75
2021/08/31 04:37:00;;;;;;;5.72;2.83;;;;;;;21.01;58.12;102639.09;5115958;28;20470;-73
2021/08/31 04:39:26;;;;;;;4.72;2.50;;;;;;;21.00;58.07;102642.59;5115919;28;20033;-76
2021/08/31 04:41:51;;;;;;;4.90;3.10;;;;;;;21.00;58.10;102638.22;5116422;28;20047;-75
2021/08/31 04:44:16;;;;;;;3.85;2.60;;;;;;;21.00;57.99;102637.34;5133210;27;20031;-75
2021/08/31 04:46:42;;;;;;;3.83;2.63;;;;;;;21.00;58.09;102640.84;5134573;27;20047;-75
2021/08/31 04:49:07;;;;;;;6.05;2.78;;;;;;;21.00;57.92;102643.47;5133181;28;20045;-76
2021/08/31 04:51:33;;;;;;;5.43;3.13;;;;;;;20.99;58.07;102639.09;5116142;28;20430;-75
2021/08/31 04:53:59;;;;;;;3.92;2.85;;;;;;;21.00;58.02;102639.97;5133087;27;20043;-75
2021/08/31 04:56:24;;;;;;;4.68;2.72;;;;;;;21.00;57.99;102640.84;5133181;28;20136;-80
2021/08/31 04:58:49;;;;;;;3.47;2.53;;;;;;;21.01;57.96;102641.72;5116773;27;20465;-77
2021/08/31 05:01:15;;;;;;;5.80;2.88;;;;;;;20.94;57.93;102643.44;5120006;27;20421;-77
2021/08/31 05:03:42;;;;;;;5.63;3.08;;;;;;;20.92;58.26;102647.78;5120257;27;20027;-75
2021/08/31 05:06:10;;;;;;;5.07;3.00;;;;;;;20.89;57.90;102647.78;5137031;27;20023;-75
2021/08/31 05:08:36;;;;;;;6.40;2.83;;;;;;;20.89;57.78;102647.78;5119842;27;20113;-83
2021/08/31 05:11:01;;;;;;;8.00;3.50;;;;;;;20.88;57.84;102646.91;5119945;27;20122;-78
2021/08/31 05:13:27;;;;;;;19.35;5.80;;;;;;;20.91;57.88;102640.81;5120395;27;20023;-79
2021/08/31 05:15:53;;;;;;;16.48;6.55;;;;;;;20.90;57.71;102654.75;5119714;27;20414;-76
2021/08/31 05:18:18;;;;;;;15.30;5.70;;;;;;;20.85;57.80;102652.09;5138051;27;20103;-76
2021/08/31 05:20:44;;;;;;;13.57;5.88;;;;;;;20.82;57.79;102648.59;5102700;27;20023;-76
2021/08/31 05:23:09;;;;;;;14.85;5.95;;;;;;;20.86;57.79;102651.25;5138036;27;20097;-76
2021/08/31 05:25:35;;;;;;;13.75;5.00;;;;;;;20.92;57.62;102658.25;5119710;27;20388;-77
2021/08/31 05:28:00;;;;;;;12.63;4.40;;;;;;;20.91;57.75;102656.50;5137715;27;20481;-75
2021/08/31 05:30:25;;;;;;;16.85;4.68;;;;;;;20.85;57.47;102657.34;5119420;27;20023;-75
2021/08/31 05:32:51;;;;;;;9.88;4.68;;;;;;;20.83;57.38;102653.84;5119330;27;20031;-76
2021/08/31 05:35:16;;;;;;;11.40;4.40;;;;;;;20.79;57.33;102661.66;5119516;27;20023;-76
2021/08/31 05:37:41;;;;;;;15.05;4.93;;;;;;;20.78;57.19;102660.78;5137681;27;20023;-77
2021/08/31 05:40:07;;;;;;;11.88;4.63;;;;;;;20.72;57.23;102664.22;5137567;27;20030;-76
2021/08/31 05:42:33;;;;;;;12.90;5.28;;;;;;;20.70;57.13;102660.72;5136176;27;20037;-76
2021/08/31 05:44:59;;;;;;;12.70;4.55;;;;;;;20.71;56.72;102662.50;5102208;27;20053;-76
2021/08/31 05:47:24;;;;;;;11.68;4.15;;;;;;;20.75;56.65;102666.88;5136245;27;20035;-77
2021/08/31 05:49:50;;;;;;;14.40;4.60;;;;;;;20.88;56.27;102667.84;5102189;27;20116;-74
2021/08/31 05:52:15;;;;;;;12.98;4.82;;;;;;;21.01;56.08;102673.13;5136238;27;20034;-75
2021/08/31 05:54:40;;;;;;;10.63;4.32;;;;;;;21.24;55.65;102675.84;5136105;27;20053;-74
2021/08/31 05:57:10;;;;;;;9.75;4.20;;;;;;;21.40;55.29;102669.78;5137429;27;20030;-75
2021/08/31 05:59:39;;;;;;;11.73;4.90;;;;;;;21.59;54.96;102675.13;5119454;27;20116;-74
2021/08/31 06:02:05;;;;;;;11.80;4.40;;;;;;;21.75;54.59;102684.78;5136029;27;20485;-75
2021/08/31 06:04:31;;;;;;;13.63;4.68;;;;;;;21.88;54.03;102689.16;5137140;27;20046;-75
2021/08/31 06:06:56;;;;;;;11.25;4.60;;;;;;;21.98;53.54;102685.69;5118581;27;20027;-76
2021/08/31 06:09:21;;;;;;;10.95;4.22;;;;;;;22.08;53.59;102689.22;5101559;27;20114;-74
2021/08/31 06:11:47;;;;;;;10.13;4.65;;;;;;;22.17;53.13;102689.22;5117298;27;20508;-76
2021/08/31 06:14:12;;;;;;;12.35;4.40;;;;;;;22.21;52.96;102689.19;5118442;27;20039;-77
2021/08/31 06:16:38;;;;;;;13.02;4.32;;;;;;;22.29;53.36;102685.75;5118525;27;20099;-78
2021/08/31 06:19:03;;;;;;;9.52;4.32;;;;;;;22.43;52.52;102687.47;5118551;27;20023;-76
2021/08/31 06:21:29;;;;;;;11.65;4.43;;;;;;;22.49;52.02;102687.47;5101345;27;20023;-74
2021/08/31 06:23:54;;;;;;;10.52;4.28;;;;;;;22.54;52.49;102691.88;5136607;27;20042;-74
2021/08/31 06:26:20;;;;;;;12.45;4.25;;;;;;;22.42;52.11;102684.00;5135482;27;20043;-75
2021/08/31 06:28:45;;;;;;;10.95;4.05;;;;;;;21.99;53.09;102699.66;5136787;27;20027;-76
2021/08/31 06:31:11;;;;;;;10.98;4.43;;;;;;;21.84;53.40;102708.41;5135725;27;20483;-73
2021/08/31 06:33:36;;;;;;;9.45;4.28;;;;;;;21.78;53.56;102711.00;5118263;27;20429;-76
2021/08/31 06:36:01;;;;;;;9.90;4.43;;;;;;;21.75;53.61;102700.50;5118385;27;20027;-75
2021/08/31 06:38:27;;;;;;;9.88;4.05;;;;;;;21.69;53.60;102714.47;5135377;27;20122;-76
2021/08/31 06:40:52;;;;;;;8.63;3.90;;;;;;;22.02;53.65;102712.78;5117973;27;20110;-76
2021/08/31 06:43:18;;;;;;;11.15;4.25;;;;;;;22.21;53.12;102703.22;5135010;27;20029;-76
2021/08/31 06:45:44;;;;;;;9.73;4.20;;;;;;;22.58;51.99;102696.22;5117970;27;20472;-75
2021/08/31 06:48:09;;;;;;;10.63;4.22;;;;;;;22.77;51.47;102696.19;5135108;27;20027;-76
2021/08/31 06:50:35;;;;;;;8.48;4.15;;;;;;;22.89;50.98;102704.06;5117770;27;20084;-76
2021/08/31 06:53:00;;;;;;;7.50;4.22;;;;;;;22.99;50.72;102705.78;5135244;27;20059;-74
2021/08/31 06:55:26;;;;;;;9.80;4.03;;;;;;;23.09;50.88;102708.41;5136323;27;20354;-76
2021/08/31 06:57:51;;;;;;;8.02;3.97;;;;;;;23.13;50.21;102704.91;5134646;27;20034;-77
2021/08/31 07:00:17;;;;;;;8.95;3.70;;;;;;;22.53;51.60;102699.72;5117610;27;20047;-75
2021/08/31 07:02:42;;;;;;;7.70;3.53;;;;;;;22.73;51.05;102703.22;5117742;27;20038;-76
2021/08/31 07:05:09;;;;;;;7.75;4.00;;;;;;;22.52;51.78;102698.00;5134613;27;20030;-78
2021/08/31 07:07:34;;;;;;;9.48;3.80;;;;;;;22.50;51.62;102712.84;5134778;27;20027;-76
2021/08/31 07:09:59;;;;;;;10.48;4.20;;;;;;;22.30;52.32;102720.72;5117409;27;20469;-74
2021/08/31 07:12:25;;;;;;;10.55;4.00;;;;;;;22.23;52.37;102711.97;5134528;27;20051;-74
2021/08/31 07:14:52;;;;;;;10.05;4.32;;;;;;;22.17;52.37;102719.81;5134543;27;20031;-75
2021/08/31 07:17:17;;;;;;;9.85;4.35;;;;;;;22.18;52.43;102719.78;5117532;27;20501;-76
2021/08/31 07:19:43;;;;;;;8.45;3.83;;;;;;;22.51;51.59;102714.59;5134451;27;20037;-76
2021/08/31 07:22:09;;;;;;;8.98;3.90;;;;;;;22.80;51.66;102714.56;5135582;27;20019;-76
2021/08/31 07:24:35;;;;;;;6.88;3.60;;;;;;;23.25;50.11;102722.34;5134304;27;20027;-76
2021/08/31 07:27:00;;;;;;;7.90;3.67;;;;;;;22.98;50.74;102721.53;5134274;27;20030;-75
2021/08/31 07:29:26;;;;;;;6.25;3.70;;;;;;;23.29;50.43;102721.47;5134285;27;20030;-76
2021/08/31 07:31:52;;;;;;;6.25;3.55;;;;;;;23.48;49.58;102719.66;5117272;27;20110;-77
2021/08/31 07:34:18;;;;;;;7.60;3.95;;;;;;;23.53;49.23;102723.97;5117422;27;20023;-76
2021/08/31 07:36:45;;;;;;;6.88;3.42;;;;;;;23.70;49.01;102721.28;5117251;27;20118;-76
2021/08/31 07:39:11;;;;;;;5.70;3.00;;;;;;;23.56;49.26;102723.09;5116977;27;20126;-75
2021/08/31 07:41:37;;;;;;;5.70;3.30;;;;;;;23.12;49.83;102727.63;5117005;27;20046;-74
2021/08/31 07:44:02;;;;;;;7.70;3.15;;;;;;;22.60;51.13;102727.69;5099643;27;20122;-75
2021/08/31 07:46:27;;;;;;;7.50;3.63;;;;;;;22.31;51.95;102736.44;5133782;27;20031;-75
2021/08/31 07:48:53;;;;;;;8.55;3.92;;;;;;;22.20;52.04;102732.91;5135133;27;20358;-76
2021/08/31 07:51:19;;;;;;;10.63;3.30;;;;;;;22.07;51.98;102734.63;5135000;27;20023;-75
2021/08/31 07:53:44;;;;;;;9.18;3.67;;;;;;;22.00;52.19;102735.50;5116697;27;20126;-75
2021/08/31 07:56:10;;;;;;;9.13;3.72;;;;;;;22.05;52.28;102749.50;5116597;27;20027;-75
2021/08/31 07:58:35;;;;;;;8.65;3.88;;;;;;;22.33;51.51;102741.69;5133578;27;20118;-74
2021/08/31 08:01:02;;;;;;;10.85;4.00;;;;;;;22.36;51.98;102747.84;5116416;27;20461;-74
2021/08/31 08:03:27;;;;;;;8.70;3.58;;;;;;;22.64;51.07;102737.31;5135068;27;20472;-74
2021/08/31 08:05:53;;;;;;;9.88;3.90;;;;;;;22.52;51.35;102738.22;5133761;27;20070;-76
2021/08/31 08:08:18;;;;;;;10.27;3.63;;;;;;;22.34;51.47;102744.34;5116308;27;20023;-74
2021/08/31 08:10:43;;;;;;;9.65;4.15;;;;;;;22.21;51.71;102737.31;5133398;27;20047;-74
2021/08/31 08:13:09;;;;;;;11.57;3.95;;;;;;;22.38;51.56;102739.94;5099290;27;20050;-77
2021/08/31 08:15:34;;;;;;;8.68;4.05;;;;;;;22.41;51.65;102747.84;5099272;27;20030;-76
2021/08/31 08:18:00;;;;;;;8.23;3.90;;;;;;;22.23;51.72;102748.66;5133415;27;20084;-75
2021/08/31 08:20:26;;;;;;;9.35;4.00;;;;;;;22.06;51.53;102745.13;5134628;27;20053;-76
2021/08/31 08:22:52;;;;;;;6.78;3.75;;;;;;;21.96;52.13;102752.09;5116090;27;20027;-76
2021/08/31 08:25:18;;;;;;;11.23;4.00;;;;;;;21.89;52.48;102751.22;5133434;27;20027;-75
2021/08/31 08:27:44;;;;;;;9.73;3.63;;;;;;;21.84;52.44;102760.81;5133324;27;20440;-76
2021/08/31 08:30:10;;;;;;;10.68;3.80;;;;;;;21.82;52.89;102759.03;5133158;27;20559;-76
2021/08/31 08:32:36;;;;;;;7.28;3.58;;;;;;;21.79;52.94;102759.91;5133219;28;20088;-75
2021/08/31 08:35:01;;;;;;;9.40;3.78;;;;;;;21.77;52.89;102764.28;5098617;28;20054;-75
2021/08/31 08:37:27;;;;;;;8.10;3.40;;;;;;;21.75;53.03;102769.53;5099074;28;20042;-75
2021/08/31 08:39:53;;;;;;;7.07;3.45;;;;;;;21.74;52.97;102766.91;5116107;28;20119;-75
2021/08/31 08:42:18;;;;;;;6.70;3.25;;;;;;;21.72;53.17;102769.50;5133208;28;20023;-75
2021/08/31 08:44:44;;;;;;;7.78;3.78;;;;;;;21.71;53.12;102778.25;5115930;28;20038;-75
2021/08/31 08:47:09;;;;;;;10.60;3.83;;;;;;;21.69;53.26;102773.88;5115970;28;20030;-75
2021/08/31 08:49:35;;;;;;;6.07;3.15;;;;;;;21.65;53.34;102779.97;5116060;28;20389;-76
2021/08/31 08:52:01;;;;;;;9.52;3.53;;;;;;;21.64;53.49;102778.19;5116011;27;20373;-75
2021/08/31 08:54:27;;;;;;;8.95;3.92;;;;;;;21.65;53.55;102785.22;5133048;27;20025;-75
2021/08/31 08:56:53;;;;;;;5.88;3.33;;;;;;;21.65;53.41;102779.97;5133120;28;20019;-75
2021/08/31 08:59:20;;;;;;;7.95;3.47;;;;;;;21.64;53.49;102780.81;5116140;28;20388;-75
2021/08/31 09:01:48;;;;;;;6.97;3.67;;;;;;;21.63;53.65;102782.56;5132955;27;20024;-74
2021/08/31 09:04:16;;;;;;;6.82;3.28;;;;;;;21.62;53.50;102778.19;5132932;28;20473;-75
2021/08/31 09:06:43;;;;;;;6.53;3.90;;;;;;;21.63;53.76;102782.56;5133228;28;20061;-77
2021/08/31 09:09:10;;;;;;;8.45;3.58;;;;;;;21.64;53.40;102781.69;5132999;27;20042;-75
2021/08/31 09:11:41;;;;;;;6.03;3.08;;;;;;;21.65;53.77;102782.59;5132720;28;20050;-77
2021/08/31 09:14:27;;;;;;;7.63;3.90;;;;;;;21.65;53.83;102787.81;5133969;27;20118;-75
2021/08/31 09:17:03;;;;;;;8.27;3.40;;;;;;;21.66;53.56;102786.94;5132916;28;20042;-75
2021/08/31 09:19:43;;;;;;;7.03;3.63;;;;;;;21.67;53.61;102786.97;5132894;27;20469;-76
2021/08/31 09:22:21;;;;;;;6.97;3.70;;;;;;;21.64;54.01;102792.16;5134083;27;20046;-74
2021/08/31 09:25:01;;;;;;;7.38;3.65;;;;;;;21.63;53.89;102793.06;5134289;27;20034;-75
2021/08/31 09:27:41;;;;;;;8.38;3.60;;;;;;;21.64;53.62;102792.16;5134105;27;20027;-75
2021/08/31 09:30:20;;;;;;;7.28;3.33;;;;;;;21.62;53.86;102798.28;5133864;27;20027;-74
2021/08/31 09:33:08;;;;;;;5.38;2.97;;;;;;;21.62;53.99;102796.53;5132639;28;20019;-74
2021/08/31 09:35:44;;;;;;;8.48;3.67;;;;;;;21.63;53.62;102792.19;5132849;27;20102;-75
2021/08/31 09:38:15;;;;;;;9.77;3.40;;;;;;;21.65;53.83;102800.94;5133878;27;20495;-75
2021/08/31 09:40:48;;;;;;;6.93;3.40;;;;;;;21.66;53.90;102792.19;5133857;27;20461;-75
2021/08/31 09:43:21;;;;;;;5.97;3.33;;;;;;;21.67;53.69;102796.56;5132655;28;20023;-75
2021/08/31 09:45:48;;;;;;;7.43;3.63;;;;;;;21.69;53.73;102794.84;5133197;27;20023;-76
2021/08/31 09:48:16;;;;;;;6.47;3.28;;;;;;;21.73;53.20;102789.59;5136108;27;20389;-75
2021/08/31 09:50:45;;;;;;;7.00;3.35;;;;;;;21.83;53.70;102792.25;5136027;27;20427;-75
2021/08/31 09:53:18;;;;;;;8.18;3.70;;;;;;;21.87;53.36;102792.28;5137426;27;20075;-75
2021/08/31 09:55:50;;;;;;;8.18;3.63;;;;;;;21.92;52.97;102787.03;5136121;27;20015;-75
2021/08/31 09:58:25;;;;;;;5.90;3.40;;;;;;;21.92;53.00;102793.16;5137585;27;20023;-76
2021/08/31 10:00:53;;;;;;;6.10;3.45;;;;;;;21.92;52.92;102787.91;5136072;27;20019;-75
2021/08/31 10:03:19;;;;;;;7.68;3.53;;;;;;;21.95;52.93;102787.94;5136841;27;20053;-76
2021/08/31 10:05:46;;;;;;;6.18;3.17;;;;;;;21.96;52.86;102800.16;5102044;27;20123;-75
2021/08/31 10:08:14;;;;;;;6.47;3.20;;;;;;;22.00;52.78;102793.19;5118943;27;20027;-78
2021/08/31 10:10:41;;;;;;;9.25;3.60;;;;;;;22.02;52.98;102793.19;5135687;27;20431;-78
2021/08/31 10:13:15;;;;;;;7.30;3.47;;;;;;;22.05;52.71;102793.19;5135697;27;20019;-74
2021/08/31 10:15:47;;;;;;;8.70;3.47;;;;;;;22.03;52.69;102795.81;5135787;27;20405;-74
2021/08/31 10:18:14;;;;;;;8.68;3.20;;;;;;;22.04;52.39;102794.09;5136910;27;20087;-76
2021/08/31 10:20:46;;;;;;;6.50;3.90;;;;;;;22.03;52.69;102795.81;5118763;27;20015;-75
2021/08/31 10:23:14;;;;;;;7.65;3.50;;;;;;;22.03;52.74;102795.81;5135552;27;20030;-74
2021/08/31 10:25:39;;;;;;;8.00;3.83;;;;;;;22.03;52.89;102798.44;5136757;27;20034;-77
2021/08/31 10:28:34;;;;;;;5.85;3.50;;;;;;;22.06;52.52;102811.56;5136711;27;20031;-74
2021/08/31 10:31:00;;;;;;;7.78;3.25;;;;;;;22.08;52.34;102811.53;5117996;27;20051;-76
2021/08/31 10:33:32;;;;;;;7.05;3.22;;;;;;;22.05;52.29;102815.03;5135526;27;20062;-75
2021/08/31 10:35:58;;;;;;;5.00;3.05;;;;;;;22.04;52.24;102825.53;5135172;27;20023;-74
2021/08/31 10:38:42;;;;;;;7.25;3.50;;;;;;;22.00;52.23;102821.16;5118020;27;20035;-75
2021/08/31 10:41:36;;;;;;;6.47;3.15;;;;;;;21.95;52.43;102818.53;5135504;27;20022;-74
2021/08/31 10:44:04;;;;;;;9.45;3.58;;;;;;;21.92;52.34;102811.50;5135171;27;20034;-74
2021/08/31 10:46:57;;;;;;;6.30;3.30;;;;;;;21.92;52.60;102813.25;5135256;27;20487;-76
2021/08/31 10:49:23;;;;;;;7.47;3.38;;;;;;;21.91;52.49;102822.88;5135137;27;20479;-74
2021/08/31 10:52:05;;;;;;;7.82;3.60;;;;;;;21.91;52.68;102817.63;5136189;27;20031;-75
2021/08/31 10:54:47;;;;;;;7.85;3.13;;;;;;;21.93;52.69;102829.00;5134859;27;20027;-75
2021/08/31 10:57:34;;;;;;;7.43;3.17;;;;;;;21.91;52.56;102833.34;5117778;27;20068;-74
2021/08/31 11:00:00;;;;;;;6.03;3.42;;;;;;;21.87;52.63;102826.34;5134762;27;20028;-74
2021/08/31 11:02:50;;;;;;;7.35;3.03;;;;;;;21.84;52.86;102830.69;5135991;27;20031;-74
2021/08/31 11:05:18;;;;;;;5.80;3.25;;;;;;;21.83;52.84;102832.44;5136350;27;20102;-78
2021/08/31 11:08:05;;;;;;;8.55;3.38;;;;;;;21.81;52.72;102831.56;5134554;27;20476;-75
2021/08/31 11:10:36;;;;;;;7.57;3.30;;;;;;;21.83;52.58;102840.31;5119994;27;20046;-75
2021/08/31 11:13:11;;;;;;;6.78;2.97;;;;;;;21.84;52.84;102841.16;5134604;27;20489;-74
2021/08/31 11:15:37;;;;;;;8.25;3.45;;;;;;;21.84;52.65;102838.53;5134564;27;20019;-75
2021/08/31 11:18:08;;;;;;;8.30;3.70;;;;;;;21.87;52.95;102846.44;5135908;27;20034;-75
2021/08/31 11:20:34;;;;;;;7.40;3.50;;;;;;;21.91;52.75;102838.59;5134605;27;20019;-74
2021/08/31 11:23:02;;;;;;;8.63;3.83;;;;;;;21.97;52.44;102835.09;5134504;27;20027;-77
2021/08/31 11:25:39;;;;;;;8.02;3.47;;;;;;;22.00;52.52;102840.38;5134550;27;20023;-76